sensor_id;sensor_type;location;lat;lon;timestamp;temperature;humidity
20998;DHT22;10657;51.276;6.390;2023-03-22T00:02:07;12.70;99.90
20998;DHT22;10657;51.276;6.390;2023-03-22T00:04:33;12.70;99.90
20998;DHT22;10657;51.276;6.390;2023-03-22T00:07:00;12.70;99.90
20998;DHT22;10657;51.276;6.390;2023-03-22T00:09:26;12.60;99.90
20998;DHT22;10657;51.276;6.390;2023-03-22T00:11:53;12.60;99.90
20998;DHT22;10657;51.276;6.390;2023-03-22T00:14:20;12.70;99.90
20998;DHT22;10657;51.276;6.390;2023-03-22T00:16:47;12.60;99.90
20998;DHT22;10657;51.276;6.390;2023-03-22T00:19:14;12.60;99.90
20998;DHT22;10657;51.276;6.390;2023-03-22T00:21:43;12.60;99.90
20998;DHT22;10657;51.276;6.390;2023-03-22T00:24:09;12.60;99.90
20998;DHT22;10657;51.276;6.390;2023-03-22T00:26:36;12.60;99.90
20998;DHT22;10657;51.276;6.390;2023-03-22T00:29:03;12.70;99.90
20998;DHT22;10657;51.276;6.390;2023-03-22T00:31:30;12.70;99.90
20998;DHT22;10657;51.276;6.390;2023-03-22T00:33:57;12.70;99.90
20998;DHT22;10657;51.276;6.390;2023-03-22T00:36:23;12.70;99.90
20998;DHT22;10657;51.276;6.390;2023-03-22T00:38:50;12.60;99.90
20998;DHT22;10657;51.276;6.390;2023-03-22T00:41:19;12.70;99.90
20998;DHT22;10657;51.276;6.390;2023-03-22T00:43:47;12.60;99.90
20998;DHT22;10657;51.276;6.390;2023-03-22T00:46:16;12.60;99.90
20998;DHT22;10657;51.276;6.390;2023-03-22T00:48:44;12.60;99.90
20998;DHT22;10657;51.276;6.390;2023-03-22T00:51:11;12.60;99.90
20998;DHT22;10657;51.276;6.390;2023-03-22T00:53:38;12.60;99.90
20998;DHT22;10657;51.276;6.390;2023-03-22T00:56:10;12.50;99.90
20998;DHT22;10657;51.276;6.390;2023-03-22T00:58:39;12.50;99.90
20998;DHT22;10657;51.276;6.390;2023-03-22T01:01:06;12.50;99.90
20998;DHT22;10657;51.276;6.390;2023-03-22T01:03:33;12.50;99.90
20998;DHT22;10657;51.276;6.390;2023-03-22T01:06:00;12.50;99.90
20998;DHT22;10657;51.276;6.390;2023-03-22T01:08:27;12.50;99.90
20998;DHT22;10657;51.276;6.390;2023-03-22T01:10:59;12.40;99.90
20998;DHT22;10657;51.276;6.390;2023-03-22T01:13:26;12.40;99.90
20998;DHT22;10657;51.276;6.390;2023-03-22T01:15:53;12.50;99.90
20998;DHT22;10657;51.276;6.390;2023-03-22T01:18:21;12.40;99.90
20998;DHT22;10657;51.276;6.390;2023-03-22T01:20:47;12.30;99.90
20998;DHT22;10657;51.276;6.390;2023-03-22T01:23:14;12.30;99.90
20998;DHT22;10657;51.276;6.390;2023-03-22T01:25:42;12.30;99.90
20998;DHT22;10657;51.276;6.390;2023-03-22T01:28:08;12.40;99.90
20998;DHT22;10657;51.276;6.390;2023-03-22T01:30:38;12.30;99.90
20998;DHT22;10657;51.276;6.390;2023-03-22T01:33:05;12.30;99.90
20998;DHT22;10657;51.276;6.390;2023-03-22T01:35:33;12.30;99.90
20998;DHT22;10657;51.276;6.390;2023-03-22T01:38:01;12.20;99.90
20998;DHT22;10657;51.276;6.390;2023-03-22T01:40:28;12.30;99.90
20998;DHT22;10657;51.276;6.390;2023-03-22T01:42:55;12.20;99.90
20998;DHT22;10657;51.276;6.390;2023-03-22T01:47:54;12.20;99.90
20998;DHT22;10657;51.276;6.390;2023-03-22T01:50:23;12.10;99.90
20998;DHT22;10657;51.276;6.390;2023-03-22T01:52:52;12.10;99.90
20998;DHT22;10657;51.276;6.390;2023-03-22T01:55:21;12.00;99.90
20998;DHT22;10657;51.276;6.390;2023-03-22T01:57:49;12.00;99.90
20998;DHT22;10657;51.276;6.390;2023-03-22T02:00:17;12.00;99.90
20998;DHT22;10657;51.276;6.390;2023-03-22T02:02:47;12.00;99.90
20998;DHT22;10657;51.276;6.390;2023-03-22T02:05:15;12.00;99.90
20998;DHT22;10657;51.276;6.390;2023-03-22T02:07:43;12.00;99.90
20998;DHT22;10657;51.276;6.390;2023-03-22T02:10:16;12.00;99.90
20998;DHT22;10657;51.276;6.390;2023-03-22T02:13:32;11.90;99.90
20998;DHT22;10657;51.276;6.390;2023-03-22T02:18:58;11.90;99.90
20998;DHT22;10657;51.276;6.390;2023-03-22T02:24:53;11.90;99.90
20998;DHT22;10657;51.276;6.390;2023-03-22T02:27:51;11.90;99.90
20998;DHT22;10657;51.276;6.390;2023-03-22T02:36:14;11.80;99.90
20998;DHT22;10657;51.276;6.390;2023-03-22T02:41:46;11.80;99.90
20998;DHT22;10657;51.276;6.390;2023-03-22T02:44:21;11.80;99.90
20998;DHT22;10657;51.276;6.390;2023-03-22T02:52:36;11.70;99.90
20998;DHT22;10657;51.276;6.390;2023-03-22T03:00:30;11.70;99.90
20998;DHT22;10657;51.276;6.390;2023-03-22T03:03:04;11.60;99.90
20998;DHT22;10657;51.276;6.390;2023-03-22T03:05:42;11.60;99.90
20998;DHT22;10657;51.276;6.390;2023-03-22T03:08:12;11.70;99.90
20998;DHT22;10657;51.276;6.390;2023-03-22T03:10:41;11.70;99.90
20998;DHT22;10657;51.276;6.390;2023-03-22T03:13:13;11.70;99.90
20998;DHT22;10657;51.276;6.390;2023-03-22T03:15:41;11.70;99.90
20998;DHT22;10657;51.276;6.390;2023-03-22T03:18:31;11.60;99.90
20998;DHT22;10657;51.276;6.390;2023-03-22T03:21:08;11.60;99.90
20998;DHT22;10657;51.276;6.390;2023-03-22T03:23:48;11.70;99.90
20998;DHT22;10657;51.276;6.390;2023-03-22T03:26:32;11.50;99.90
20998;DHT22;10657;51.276;6.390;2023-03-22T03:31:49;11.50;99.90
20998;DHT22;10657;51.276;6.390;2023-03-22T03:34:28;11.60;99.90
20998;DHT22;10657;51.276;6.390;2023-03-22T03:37:14;11.40;99.90
20998;DHT22;10657;51.276;6.390;2023-03-22T03:39:47;11.40;99.90
20998;DHT22;10657;51.276;6.390;2023-03-22T03:42:17;11.40;99.90
20998;DHT22;10657;51.276;6.390;2023-03-22T03:44:44;11.40;99.90
20998;DHT22;10657;51.276;6.390;2023-03-22T03:47:11;11.40;99.90
20998;DHT22;10657;51.276;6.390;2023-03-22T03:49:38;11.40;99.90
20998;DHT22;10657;51.276;6.390;2023-03-22T03:52:05;11.30;99.90
20998;DHT22;10657;51.276;6.390;2023-03-22T03:54:32;11.30;99.90
20998;DHT22;10657;51.276;6.390;2023-03-22T03:56:59;11.30;99.90
20998;DHT22;10657;51.276;6.390;2023-03-22T03:59:29;11.30;99.90
20998;DHT22;10657;51.276;6.390;2023-03-22T04:01:56;11.30;99.90
20998;DHT22;10657;51.276;6.390;2023-03-22T04:04:25;11.20;99.90
20998;DHT22;10657;51.276;6.390;2023-03-22T04:06:54;11.20;99.90
20998;DHT22;10657;51.276;6.390;2023-03-22T04:09:28;11.20;99.90
20998;DHT22;10657;51.276;6.390;2023-03-22T04:11:56;11.20;99.90
20998;DHT22;10657;51.276;6.390;2023-03-22T04:14:24;11.20;99.90
20998;DHT22;10657;51.276;6.390;2023-03-22T04:16:51;11.20;99.90
20998;DHT22;10657;51.276;6.390;2023-03-22T04:19:18;11.30;99.90
20998;DHT22;10657;51.276;6.390;2023-03-22T04:21:46;11.30;99.90
20998;DHT22;10657;51.276;6.390;2023-03-22T04:24:13;11.30;99.90
20998;DHT22;10657;51.276;6.390;2023-03-22T04:26:40;11.30;99.90
20998;DHT22;10657;51.276;6.390;2023-03-22T04:29:07;11.20;99.90
20998;DHT22;10657;51.276;6.390;2023-03-22T04:31:34;11.20;99.90
20998;DHT22;10657;51.276;6.390;2023-03-22T04:34:02;11.10;99.90
20998;DHT22;10657;51.276;6.390;2023-03-22T04:36:32;11.10;99.90
20998;DHT22;10657;51.276;6.390;2023-03-22T04:39:02;11.10;99.90
20998;DHT22;10657;51.276;6.390;2023-03-22T04:41:32;11.10;99.90
20998;DHT22;10657;51.276;6.390;2023-03-22T04:43:58;11.00;99.90
20998;DHT22;10657;51.276;6.390;2023-03-22T04:46:30;11.10;99.90
20998;DHT22;10657;51.276;6.390;2023-03-22T04:48:57;11.20;99.90
20998;DHT22;10657;51.276;6.390;2023-03-22T04:51:24;11.10;99.90
20998;DHT22;10657;51.276;6.390;2023-03-22T04:53:52;11.10;99.90
20998;DHT22;10657;51.276;6.390;2023-03-22T04:56:19;11.10;99.90
20998;DHT22;10657;51.276;6.390;2023-03-22T04:58:46;11.00;99.90
20998;DHT22;10657;51.276;6.390;2023-03-22T05:01:15;11.00;99.90
20998;DHT22;10657;51.276;6.390;2023-03-22T05:03:42;11.00;99.90
20998;DHT22;10657;51.276;6.390;2023-03-22T05:06:10;11.00;99.90
20998;DHT22;10657;51.276;6.390;2023-03-22T05:08:37;11.00;99.90
20998;DHT22;10657;51.276;6.390;2023-03-22T05:11:11;11.00;99.90
20998;DHT22;10657;51.276;6.390;2023-03-22T05:13:39;11.00;99.90
20998;DHT22;10657;51.276;6.390;2023-03-22T05:16:06;11.00;99.90
20998;DHT22;10657;51.276;6.390;2023-03-22T05:18:34;11.10;99.90
20998;DHT22;10657;51.276;6.390;2023-03-22T05:21:03;11.00;99.90
20998;DHT22;10657;51.276;6.390;2023-03-22T05:23:32;11.00;99.90
20998;DHT22;10657;51.276;6.390;2023-03-22T05:25:58;11.00;99.90
20998;DHT22;10657;51.276;6.390;2023-03-22T05:28:27;10.90;99.90
20998;DHT22;10657;51.276;6.390;2023-03-22T05:30:53;10.90;99.90
20998;DHT22;10657;51.276;6.390;2023-03-22T05:33:22;11.00;99.90
20998;DHT22;10657;51.276;6.390;2023-03-22T05:35:49;11.00;99.90
20998;DHT22;10657;51.276;6.390;2023-03-22T05:38:16;11.00;99.90
20998;DHT22;10657;51.276;6.390;2023-03-22T05:40:43;11.00;99.90
20998;DHT22;10657;51.276;6.390;2023-03-22T05:43:10;11.00;99.90
20998;DHT22;10657;51.276;6.390;2023-03-22T05:45:37;11.00;99.90
20998;DHT22;10657;51.276;6.390;2023-03-22T05:48:04;11.00;99.90
20998;DHT22;10657;51.276;6.390;2023-03-22T05:50:31;11.00;99.90
20998;DHT22;10657;51.276;6.390;2023-03-22T05:52:58;11.10;99.90
20998;DHT22;10657;51.276;6.390;2023-03-22T05:55:25;11.10;99.90
20998;DHT22;10657;51.276;6.390;2023-03-22T05:57:52;11.10;99.90
20998;DHT22;10657;51.276;6.390;2023-03-22T06:00:20;11.00;99.90
20998;DHT22;10657;51.276;6.390;2023-03-22T06:02:48;11.00;99.90
20998;DHT22;10657;51.276;6.390;2023-03-22T06:05:15;10.90;99.90
20998;DHT22;10657;51.276;6.390;2023-03-22T06:07:43;10.90;99.90
20998;DHT22;10657;51.276;6.390;2023-03-22T06:10:12;10.90;99.90
20998;DHT22;10657;51.276;6.390;2023-03-22T06:12:39;11.00;99.90
20998;DHT22;10657;51.276;6.390;2023-03-22T06:15:06;11.10;99.90
20998;DHT22;10657;51.276;6.390;2023-03-22T06:17:34;11.00;99.90
20998;DHT22;10657;51.276;6.390;2023-03-22T06:20:02;11.00;99.90
20998;DHT22;10657;51.276;6.390;2023-03-22T06:22:34;11.10;99.90
20998;DHT22;10657;51.276;6.390;2023-03-22T06:25:01;11.10;99.90
20998;DHT22;10657;51.276;6.390;2023-03-22T06:27:28;11.20;99.90
20998;DHT22;10657;51.276;6.390;2023-03-22T06:29:55;11.20;99.90
20998;DHT22;10657;51.276;6.390;2023-03-22T06:32:22;11.20;99.90
20998;DHT22;10657;51.276;6.390;2023-03-22T06:34:53;11.20;99.90
20998;DHT22;10657;51.276;6.390;2023-03-22T06:37:19;11.20;99.90
20998;DHT22;10657;51.276;6.390;2023-03-22T06:39:46;11.20;99.90
20998;DHT22;10657;51.276;6.390;2023-03-22T06:42:13;11.20;99.90
20998;DHT22;10657;51.276;6.390;2023-03-22T06:44:41;11.20;99.90
20998;DHT22;10657;51.276;6.390;2023-03-22T06:47:10;11.30;99.90
20998;DHT22;10657;51.276;6.390;2023-03-22T06:49:37;11.30;99.90
20998;DHT22;10657;51.276;6.390;2023-03-22T06:52:04;11.40;99.90
20998;DHT22;10657;51.276;6.390;2023-03-22T06:54:31;11.30;99.90
20998;DHT22;10657;51.276;6.390;2023-03-22T06:56:58;11.40;99.90
20998;DHT22;10657;51.276;6.390;2023-03-22T06:59:24;11.40;99.90
20998;DHT22;10657;51.276;6.390;2023-03-22T07:01:51;11.40;99.90
20998;DHT22;10657;51.276;6.390;2023-03-22T07:04:18;11.50;99.90
20998;DHT22;10657;51.276;6.390;2023-03-22T07:06:45;11.50;99.90
20998;DHT22;10657;51.276;6.390;2023-03-22T07:09:12;11.50;99.90
20998;DHT22;10657;51.276;6.390;2023-03-22T07:11:38;11.60;99.90
20998;DHT22;10657;51.276;6.390;2023-03-22T07:14:05;11.60;99.90
20998;DHT22;10657;51.276;6.390;2023-03-22T07:16:32;11.60;99.90
20998;DHT22;10657;51.276;6.390;2023-03-22T07:18:58;11.70;99.90
20998;DHT22;10657;51.276;6.390;2023-03-22T07:21:26;11.70;99.90
20998;DHT22;10657;51.276;6.390;2023-03-22T07:23:52;11.70;99.90
20998;DHT22;10657;51.276;6.390;2023-03-22T07:26:20;11.70;99.90
20998;DHT22;10657;51.276;6.390;2023-03-22T07:28:47;11.60;99.90
20998;DHT22;10657;51.276;6.390;2023-03-22T07:31:14;11.60;99.90
20998;DHT22;10657;51.276;6.390;2023-03-22T07:33:41;11.60;99.90
20998;DHT22;10657;51.276;6.390;2023-03-22T07:36:08;11.60;99.90
20998;DHT22;10657;51.276;6.390;2023-03-22T07:38:36;11.60;99.90
20998;DHT22;10657;51.276;6.390;2023-03-22T07:41:03;11.60;99.90
20998;DHT22;10657;51.276;6.390;2023-03-22T07:43:30;11.60;99.90
20998;DHT22;10657;51.276;6.390;2023-03-22T07:45:56;11.60;99.90
20998;DHT22;10657;51.276;6.390;2023-03-22T07:48:23;11.60;99.90
20998;DHT22;10657;51.276;6.390;2023-03-22T07:50:54;11.60;99.90
20998;DHT22;10657;51.276;6.390;2023-03-22T07:53:21;11.60;99.90
20998;DHT22;10657;51.276;6.390;2023-03-22T07:55:48;11.70;99.90
20998;DHT22;10657;51.276;6.390;2023-03-22T07:58:14;11.70;99.90
20998;DHT22;10657;51.276;6.390;2023-03-22T08:00:41;11.70;99.90
20998;DHT22;10657;51.276;6.390;2023-03-22T08:03:10;11.70;99.90
20998;DHT22;10657;51.276;6.390;2023-03-22T08:05:42;11.80;99.90
20998;DHT22;10657;51.276;6.390;2023-03-22T08:08:09;11.70;99.90
20998;DHT22;10657;51.276;6.390;2023-03-22T08:10:36;11.80;99.90
20998;DHT22;10657;51.276;6.390;2023-03-22T08:13:03;11.60;99.90
20998;DHT22;10657;51.276;6.390;2023-03-22T08:15:30;11.70;99.90
20998;DHT22;10657;51.276;6.390;2023-03-22T08:17:57;11.70;99.90
20998;DHT22;10657;51.276;6.390;2023-03-22T08:20:26;11.70;99.90
20998;DHT22;10657;51.276;6.390;2023-03-22T08:22:54;11.70;99.90
20998;DHT22;10657;51.276;6.390;2023-03-22T08:25:21;11.80;99.90
20998;DHT22;10657;51.276;6.390;2023-03-22T08:27:49;11.90;99.90
20998;DHT22;10657;51.276;6.390;2023-03-22T08:30:15;11.80;99.90
20998;DHT22;10657;51.276;6.390;2023-03-22T08:32:42;11.80;99.90
20998;DHT22;10657;51.276;6.390;2023-03-22T08:35:09;11.90;99.90
20998;DHT22;10657;51.276;6.390;2023-03-22T08:37:36;11.90;99.90
20998;DHT22;10657;51.276;6.390;2023-03-22T08:40:03;12.00;99.90
20998;DHT22;10657;51.276;6.390;2023-03-22T08:42:32;12.00;99.90
20998;DHT22;10657;51.276;6.390;2023-03-22T08:44:59;12.00;99.90
20998;DHT22;10657;51.276;6.390;2023-03-22T08:47:26;12.00;99.90
20998;DHT22;10657;51.276;6.390;2023-03-22T08:49:52;12.10;99.90
20998;DHT22;10657;51.276;6.390;2023-03-22T08:52:19;12.10;99.90
20998;DHT22;10657;51.276;6.390;2023-03-22T08:54:46;12.10;99.90
20998;DHT22;10657;51.276;6.390;2023-03-22T08:57:12;12.20;99.90
20998;DHT22;10657;51.276;6.390;2023-03-22T08:59:40;12.20;99.90
20998;DHT22;10657;51.276;6.390;2023-03-22T09:02:07;12.30;99.90
20998;DHT22;10657;51.276;6.390;2023-03-22T09:04:34;12.30;99.90
20998;DHT22;10657;51.276;6.390;2023-03-22T09:07:01;12.40;99.90
20998;DHT22;10657;51.276;6.390;2023-03-22T09:09:28;12.30;99.90
20998;DHT22;10657;51.276;6.390;2023-03-22T09:11:55;12.20;99.90
20998;DHT22;10657;51.276;6.390;2023-03-22T09:14:21;12.20;99.90
20998;DHT22;10657;51.276;6.390;2023-03-22T09:16:48;12.20;99.90
20998;DHT22;10657;51.276;6.390;2023-03-22T09:19:15;12.20;99.90
20998;DHT22;10657;51.276;6.390;2023-03-22T09:21:41;12.30;99.90
20998;DHT22;10657;51.276;6.390;2023-03-22T09:24:09;12.30;99.90
20998;DHT22;10657;51.276;6.390;2023-03-22T09:26:35;12.30;99.90
20998;DHT22;10657;51.276;6.390;2023-03-22T09:29:02;12.20;99.90
20998;DHT22;10657;51.276;6.390;2023-03-22T09:31:29;12.20;99.90
20998;DHT22;10657;51.276;6.390;2023-03-22T09:33:55;12.30;99.90
20998;DHT22;10657;51.276;6.390;2023-03-22T09:36:22;12.40;99.90
20998;DHT22;10657;51.276;6.390;2023-03-22T09:38:48;12.50;99.90
20998;DHT22;10657;51.276;6.390;2023-03-22T09:41:23;12.60;99.90
20998;DHT22;10657;51.276;6.390;2023-03-22T09:43:54;12.50;99.90
20998;DHT22;10657;51.276;6.390;2023-03-22T09:46:34;12.50;99.90
20998;DHT22;10657;51.276;6.390;2023-03-22T09:49:06;12.50;99.90
20998;DHT22;10657;51.276;6.390;2023-03-22T09:51:44;12.60;99.90
20998;DHT22;10657;51.276;6.390;2023-03-22T09:54:22;12.70;99.90
20998;DHT22;10657;51.276;6.390;2023-03-22T09:56:59;12.80;99.90
20998;DHT22;10657;51.276;6.390;2023-03-22T10:10:31;12.80;99.90
20998;DHT22;10657;51.276;6.390;2023-03-22T10:13:06;12.60;99.90
20998;DHT22;10657;51.276;6.390;2023-03-22T10:15:42;12.50;99.90
20998;DHT22;10657;51.276;6.390;2023-03-22T10:18:15;12.50;99.90
20998;DHT22;10657;51.276;6.390;2023-03-22T10:23:46;12.60;99.90
20998;DHT22;10657;51.276;6.390;2023-03-22T10:26:41;12.50;99.90
20998;DHT22;10657;51.276;6.390;2023-03-22T10:31:49;12.60;99.90
20998;DHT22;10657;51.276;6.390;2023-03-22T10:36:43;12.60;99.90
20998;DHT22;10657;51.276;6.390;2023-03-22T10:39:21;12.60;99.90
20998;DHT22;10657;51.276;6.390;2023-03-22T10:41:54;12.70;99.90
20998;DHT22;10657;51.276;6.390;2023-03-22T10:44:24;12.80;99.90
20998;DHT22;10657;51.276;6.390;2023-03-22T10:46:54;12.80;99.90
20998;DHT22;10657;51.276;6.390;2023-03-22T10:49:31;12.90;99.90
20998;DHT22;10657;51.276;6.390;2023-03-22T10:52:02;12.90;99.90
20998;DHT22;10657;51.276;6.390;2023-03-22T10:54:30;12.90;99.90
20998;DHT22;10657;51.276;6.390;2023-03-22T10:56:57;12.90;99.90
20998;DHT22;10657;51.276;6.390;2023-03-22T10:59:47;12.90;99.90
20998;DHT22;10657;51.276;6.390;2023-03-22T11:02:22;12.90;99.90
20998;DHT22;10657;51.276;6.390;2023-03-22T11:04:54;12.90;99.90
20998;DHT22;10657;51.276;6.390;2023-03-22T11:12:38;12.90;99.90
20998;DHT22;10657;51.276;6.390;2023-03-22T11:17:50;13.00;99.90
20998;DHT22;10657;51.276;6.390;2023-03-22T11:20:18;12.90;99.90
20998;DHT22;10657;51.276;6.390;2023-03-22T11:22:46;13.00;99.90
20998;DHT22;10657;51.276;6.390;2023-03-22T11:27:55;12.90;99.90
20998;DHT22;10657;51.276;6.390;2023-03-22T11:30:27;13.00;99.90
20998;DHT22;10657;51.276;6.390;2023-03-22T11:35:36;13.10;99.90
20998;DHT22;10657;51.276;6.390;2023-03-22T11:38:04;13.00;99.90
20998;DHT22;10657;51.276;6.390;2023-03-22T11:40:33;13.10;99.90
20998;DHT22;10657;51.276;6.390;2023-03-22T11:43:14;13.00;99.90
20998;DHT22;10657;51.276;6.390;2023-03-22T11:45:43;13.10;99.90
20998;DHT22;10657;51.276;6.390;2023-03-22T11:48:28;13.10;99.90
20998;DHT22;10657;51.276;6.390;2023-03-22T11:51:38;13.20;99.90
20998;DHT22;10657;51.276;6.390;2023-03-22T11:54:26;13.20;99.90
20998;DHT22;10657;51.276;6.390;2023-03-22T11:56:59;13.10;99.90
20998;DHT22;10657;51.276;6.390;2023-03-22T11:59:30;13.00;99.90
20998;DHT22;10657;51.276;6.390;2023-03-22T12:02:16;13.10;99.90
20998;DHT22;10657;51.276;6.390;2023-03-22T12:04:46;13.10;99.90
20998;DHT22;10657;51.276;6.390;2023-03-22T12:07:16;13.20;99.90
20998;DHT22;10657;51.276;6.390;2023-03-22T12:10:03;13.20;99.90
20998;DHT22;10657;51.276;6.390;2023-03-22T12:12:38;13.10;99.90
20998;DHT22;10657;51.276;6.390;2023-03-22T12:15:21;13.20;99.90
20998;DHT22;10657;51.276;6.390;2023-03-22T12:18:04;13.20;99.90
20998;DHT22;10657;51.276;6.390;2023-03-22T12:20:39;13.10;99.90
20998;DHT22;10657;51.276;6.390;2023-03-22T12:23:22;13.20;99.90
20998;DHT22;10657;51.276;6.390;2023-03-22T12:26:09;13.20;99.90
20998;DHT22;10657;51.276;6.390;2023-03-22T12:28:55;13.10;99.90
20998;DHT22;10657;51.276;6.390;2023-03-22T12:31:37;13.20;99.90
20998;DHT22;10657;51.276;6.390;2023-03-22T12:34:14;13.20;99.90
20998;DHT22;10657;51.276;6.390;2023-03-22T12:37:01;13.20;99.90
20998;DHT22;10657;51.276;6.390;2023-03-22T12:39:34;13.30;99.90
20998;DHT22;10657;51.276;6.390;2023-03-22T12:44:41;13.20;99.90
20998;DHT22;10657;51.276;6.390;2023-03-22T12:47:38;13.20;99.90
20998;DHT22;10657;51.276;6.390;2023-03-22T12:50:22;13.30;99.90
20998;DHT22;10657;51.276;6.390;2023-03-22T12:52:52;13.30;99.90
20998;DHT22;10657;51.276;6.390;2023-03-22T12:55:30;13.30;99.90
20998;DHT22;10657;51.276;6.390;2023-03-22T12:57:57;13.30;99.90
20998;DHT22;10657;51.276;6.390;2023-03-22T13:00:28;13.30;99.90
20998;DHT22;10657;51.276;6.390;2023-03-22T13:05:57;13.30;99.90
20998;DHT22;10657;51.276;6.390;2023-03-22T13:08:24;13.40;99.90
20998;DHT22;10657;51.276;6.390;2023-03-22T13:11:03;13.30;99.90
20998;DHT22;10657;51.276;6.390;2023-03-22T13:13:39;13.30;99.90
20998;DHT22;10657;51.276;6.390;2023-03-22T13:18:57;13.40;99.90
20998;DHT22;10657;51.276;6.390;2023-03-22T13:21:27;13.40;99.90
20998;DHT22;10657;51.276;6.390;2023-03-22T13:27:00;13.40;99.90
20998;DHT22;10657;51.276;6.390;2023-03-22T13:29:34;13.40;99.90
20998;DHT22;10657;51.276;6.390;2023-03-22T13:32:28;13.50;99.90
20998;DHT22;10657;51.276;6.390;2023-03-22T13:34:56;13.60;99.90
20998;DHT22;10657;51.276;6.390;2023-03-22T13:37:34;13.60;99.90
20998;DHT22;10657;51.276;6.390;2023-03-22T13:40:25;13.60;99.90
20998;DHT22;10657;51.276;6.390;2023-03-22T13:42:52;13.70;99.90
20998;DHT22;10657;51.276;6.390;2023-03-22T13:45:31;13.70;99.90
20998;DHT22;10657;51.276;6.390;2023-03-22T13:48:07;13.60;99.90
20998;DHT22;10657;51.276;6.390;2023-03-22T13:50:35;13.60;99.90
20998;DHT22;10657;51.276;6.390;2023-03-22T13:53:05;13.60;99.90
20998;DHT22;10657;51.276;6.390;2023-03-22T14:00:58;13.60;99.90
20998;DHT22;10657;51.276;6.390;2023-03-22T14:03:29;13.60;99.90
20998;DHT22;10657;51.276;6.390;2023-03-22T14:06:10;13.60;99.90
20998;DHT22;10657;51.276;6.390;2023-03-22T14:08:41;13.70;99.90
20998;DHT22;10657;51.276;6.390;2023-03-22T14:11:20;13.70;99.90
20998;DHT22;10657;51.276;6.390;2023-03-22T14:13:51;13.80;99.90
20998;DHT22;10657;51.276;6.390;2023-03-22T14:16:34;13.70;99.90
20998;DHT22;10657;51.276;6.390;2023-03-22T14:19:04;13.70;99.90
20998;DHT22;10657;51.276;6.390;2023-03-22T14:21:37;13.70;99.90
20998;DHT22;10657;51.276;6.390;2023-03-22T14:24:06;13.80;99.90
20998;DHT22;10657;51.276;6.390;2023-03-22T14:26:36;13.70;99.90
20998;DHT22;10657;51.276;6.390;2023-03-22T14:29:14;13.70;99.90
20998;DHT22;10657;51.276;6.390;2023-03-22T14:31:43;13.70;99.90
20998;DHT22;10657;51.276;6.390;2023-03-22T14:34:13;13.70;99.90
20998;DHT22;10657;51.276;6.390;2023-03-22T14:36:43;13.60;99.90
20998;DHT22;10657;51.276;6.390;2023-03-22T14:39:20;13.60;99.90
20998;DHT22;10657;51.276;6.390;2023-03-22T14:44:24;13.60;99.90
20998;DHT22;10657;51.276;6.390;2023-03-22T14:47:00;13.60;99.90
20998;DHT22;10657;51.276;6.390;2023-03-22T14:49:26;13.60;99.90
20998;DHT22;10657;51.276;6.390;2023-03-22T14:51:52;13.60;99.90
20998;DHT22;10657;51.276;6.390;2023-03-22T14:54:19;13.60;99.90
20998;DHT22;10657;51.276;6.390;2023-03-22T14:56:47;13.60;99.90
20998;DHT22;10657;51.276;6.390;2023-03-22T14:59:16;13.60;99.90
20998;DHT22;10657;51.276;6.390;2023-03-22T15:04:13;13.50;99.90
20998;DHT22;10657;51.276;6.390;2023-03-22T15:07:00;13.50;99.90
20998;DHT22;10657;51.276;6.390;2023-03-22T15:09:26;13.50;99.90
20998;DHT22;10657;51.276;6.390;2023-03-22T15:11:59;13.50;99.90
20998;DHT22;10657;51.276;6.390;2023-03-22T15:14:33;13.40;99.90
20998;DHT22;10657;51.276;6.390;2023-03-22T15:17:00;13.40;99.90
20998;DHT22;10657;51.276;6.390;2023-03-22T15:19:32;13.50;99.90
20998;DHT22;10657;51.276;6.390;2023-03-22T15:24:38;13.40;99.90
20998;DHT22;10657;51.276;6.390;2023-03-22T15:27:09;13.40;99.90
20998;DHT22;10657;51.276;6.390;2023-03-22T15:29:40;13.40;99.90
20998;DHT22;10657;51.276;6.390;2023-03-22T15:32:15;13.50;99.90
20998;DHT22;10657;51.276;6.390;2023-03-22T15:34:42;13.50;99.90
20998;DHT22;10657;51.276;6.390;2023-03-22T15:37:24;13.50;99.90
20998;DHT22;10657;51.276;6.390;2023-03-22T15:39:50;13.50;99.90
20998;DHT22;10657;51.276;6.390;2023-03-22T15:42:20;13.60;99.90
20998;DHT22;10657;51.276;6.390;2023-03-22T15:47:20;13.70;99.90
20998;DHT22;10657;51.276;6.390;2023-03-22T15:49:54;13.70;99.90
20998;DHT22;10657;51.276;6.390;2023-03-22T15:55:04;13.70;99.90
20998;DHT22;10657;51.276;6.390;2023-03-22T16:00:06;13.70;99.90
20998;DHT22;10657;51.276;6.390;2023-03-22T16:02:48;13.80;99.90
20998;DHT22;10657;51.276;6.390;2023-03-22T16:05:14;13.80;99.90
20998;DHT22;10657;51.276;6.390;2023-03-22T16:07:40;13.80;99.90
20998;DHT22;10657;51.276;6.390;2023-03-22T16:10:06;13.80;99.90
20998;DHT22;10657;51.276;6.390;2023-03-22T16:12:32;13.90;99.90
20998;DHT22;10657;51.276;6.390;2023-03-22T16:14:57;13.80;99.90
20998;DHT22;10657;51.276;6.390;2023-03-22T16:17:24;13.80;99.90
20998;DHT22;10657;51.276;6.390;2023-03-22T16:19:51;13.80;99.90
20998;DHT22;10657;51.276;6.390;2023-03-22T16:22:19;13.90;99.90
20998;DHT22;10657;51.276;6.390;2023-03-22T16:24:45;13.90;99.90
20998;DHT22;10657;51.276;6.390;2023-03-22T16:27:24;13.80;99.90
20998;DHT22;10657;51.276;6.390;2023-03-22T16:29:50;13.90;99.90
20998;DHT22;10657;51.276;6.390;2023-03-22T16:32:20;13.80;99.90
20998;DHT22;10657;51.276;6.390;2023-03-22T16:34:47;13.70;99.90
20998;DHT22;10657;51.276;6.390;2023-03-22T16:39:44;13.80;99.90
20998;DHT22;10657;51.276;6.390;2023-03-22T16:42:18;13.80;99.90
20998;DHT22;10657;51.276;6.390;2023-03-22T16:44:46;13.80;99.90
20998;DHT22;10657;51.276;6.390;2023-03-22T16:47:14;13.70;99.90
20998;DHT22;10657;51.276;6.390;2023-03-22T16:49:40;13.80;99.90
20998;DHT22;10657;51.276;6.390;2023-03-22T16:52:09;13.70;99.90
20998;DHT22;10657;51.276;6.390;2023-03-22T16:54:36;13.70;99.90
20998;DHT22;10657;51.276;6.390;2023-03-22T16:57:02;13.60;99.90
20998;DHT22;10657;51.276;6.390;2023-03-22T16:59:27;13.60;99.90
20998;DHT22;10657;51.276;6.390;2023-03-22T17:01:53;13.60;99.90
20998;DHT22;10657;51.276;6.390;2023-03-22T17:04:19;13.60;99.90
20998;DHT22;10657;51.276;6.390;2023-03-22T17:06:44;13.60;99.90
20998;DHT22;10657;51.276;6.390;2023-03-22T17:09:10;13.60;99.90
20998;DHT22;10657;51.276;6.390;2023-03-22T17:11:36;13.60;99.90
20998;DHT22;10657;51.276;6.390;2023-03-22T17:14:01;13.50;99.90
20998;DHT22;10657;51.276;6.390;2023-03-22T17:16:27;13.50;99.90
20998;DHT22;10657;51.276;6.390;2023-03-22T17:18:53;13.50;99.90
20998;DHT22;10657;51.276;6.390;2023-03-22T17:21:20;13.50;99.90
20998;DHT22;10657;51.276;6.390;2023-03-22T17:23:47;13.50;99.90
20998;DHT22;10657;51.276;6.390;2023-03-22T17:26:14;13.50;99.90
20998;DHT22;10657;51.276;6.390;2023-03-22T17:28:42;13.50;99.90